Hicks Air Field

KT67 · Lone Star State, United States

October 3, 2022

Time Code Weather Temp. Visibility Ceiling Wind METAR/SPECI
01:53
V
18 °C 10 mi - Var 000° 0 kt METAR KAFW 030653Z 00000KT 10SM CLR 18/08 A3015 RMK AO2 SLP199 T01780078
00:53
V
17 °C 10 mi - Var 000° 0 kt METAR KAFW 030553Z 00000KT 10SM CLR 17/07 A3016 RMK AO2 SLP203 T01670072 10267 20167 402830106 58001

October 2, 2022

Time Code Weather Temp. Visibility Ceiling Wind METAR/SPECI
23:53
V
19 °C 10 mi - Var 000° 0 kt METAR KAFW 030453Z 00000KT 10SM CLR 19/07 A3016 RMK AO2 SLP202 T01890072
22:53
V
21 °C 10 mi - Var 000° 0 kt METAR KAFW 030353Z 00000KT 10SM CLR 21/08 A3016 RMK AO2 SLP204 T02060078
21:53
V
22 °C 10 mi - 160° 160° 4 kt METAR KAFW 030253Z 16004KT 10SM CLR 22/08 A3016 RMK AO2 SLP204 T02170078 53013
20:53
V
23 °C 10 mi - 110° 110° 4 kt METAR KAFW 030153Z 11004KT 10SM FEW250 23/07 A3014 RMK AO2 SLP200 T02280072
19:53
V
26 °C 10 mi - 110° 110° 3 kt METAR KAFW 030053Z 11003KT 10SM FEW250 26/06 A3012 RMK AO2 SLP194 T02560061
18:53
V
27 °C 10 mi - 130° 130° 3 kt METAR KAFW 022353Z 13003KT 10SM FEW250 27/06 A3012 RMK AO2 SLP192 T02670061 10283 20261 50003
17:53
V
28 °C 10 mi - 140° 140° 5 kt METAR KAFW 022253Z 14005KT 10SM FEW250 28/06 A3012 RMK AO2 SLP191 T02780056
16:53
V
28 °C 10 mi - 090° 090° 9 kt METAR KAFW 022153Z 09009KT 10SM FEW250 28/06 A3011 RMK AO2 SLP188 T02780056
15:53
V
28 °C 10 mi - 060° 060° 7 kt METAR KAFW 022053Z 06007KT 10SM CLR 28/06 A3011 RMK AO2 SLP187 T02780061 56025
14:53
V
27 °C 10 mi - 080° 080° 7 kt METAR KAFW 021953Z 08007KT 040V110 10SM CLR 27/07 A3013 RMK AO2 SLP194 T02720067
13:53
V
27 °C 10 mi - 090° 090° 8 kt METAR KAFW 021853Z 09008KT 060V130 10SM CLR 27/06 A3016 RMK AO2 SLP204 T02670061
12:53
V
26 °C 10 mi - 100° 100° 6 kt METAR KAFW 021753Z 10006KT 10SM CLR 26/06 A3019 RMK AO2 SLP213 T02610056 10267 20106 58009
11:53
V
25 °C 10 mi - 100° 100° 5 kt METAR KAFW 021653Z 10005KT 10SM CLR 25/07 A3021 RMK AO2 SLP220 T02500072
10:53
V
23 °C 10 mi - Var 000° 0 kt METAR KAFW 021553Z 00000KT 10SM CLR 23/08 A3022 RMK AO2 SLP226 T02330083
09:53
V
20 °C 10 mi - Var 000° 0 kt METAR KAFW 021453Z 00000KT 10SM CLR 20/09 A3021 RMK AO2 SLP223 T02000089 53020
08:53
V
16 °C 10 mi - Var 000° 0 kt METAR KAFW 021353Z 00000KT 10SM CLR 16/08 A3019 RMK AO2 SLP216 T01560078
07:53
V
13 °C 10 mi - 360° 360° 3 kt METAR KAFW 021253Z 36003KT 10SM CLR 13/06 A3017 RMK AO2 SLP212 T01280056
06:53
V
12 °C 10 mi - Var 000° 0 kt METAR KAFW 021153Z 00000KT 10SM CLR 12/06 A3015 RMK AO2 SLP204 T01170056 10172 20111 53017
05:53
V
14 °C 10 mi - 010° 010° 3 kt METAR KAFW 021053Z 01003KT 10SM CLR 14/06 A3013 RMK AO2 SLP195 T01390056
04:53
V
13 °C 10 mi - Var 000° 0 kt METAR KAFW 020953Z 00000KT 10SM CLR 13/06 A3011 RMK AO2 SLP188 T01280061
03:53
V
14 °C 10 mi - Var 000° 0 kt METAR KAFW 020853Z 00000KT 10SM CLR 14/06 A3010 RMK AO2 SLP184 T01440056 50005
02:53
V
15 °C 10 mi - 360° 360° 4 kt METAR KAFW 020753Z 36004KT 10SM CLR 15/06 A3010 RMK AO2 SLP184 T01500061
01:53
V
16 °C 10 mi - Var 000° 0 kt METAR KAFW 020653Z 00000KT 10SM CLR 16/06 A3009 RMK AO2 SLP180 T01610056
00:53
V
17 °C 10 mi - Var 000° 0 kt METAR KAFW 020553Z 00000KT 10SM CLR 17/06 A3009 RMK AO2 SLP179 T01720056 10250 20167 402720106 51007

October 1, 2022

Time Code Weather Temp. Visibility Ceiling Wind METAR/SPECI
23:53
V
18 °C 10 mi - 230° 230° 4 kt METAR KAFW 020453Z 23004KT 10SM CLR 18/06 A3009 RMK AO2 SLP179 T01780056
22:53
V
20 °C 10 mi - 220° 220° 3 kt METAR KAFW 020353Z 22003KT 10SM CLR 20/05 A3008 RMK AO2 SLP177 T02000050
21:53
V
21 °C 10 mi - 140° 140° 3 kt METAR KAFW 020253Z 14003KT 10SM CLR 21/04 A3007 RMK AO2 SLP173 T02060044 53013
20:53
V
22 °C 10 mi - 170° 170° 3 kt METAR KAFW 020153Z 17003KT 10SM CLR 22/04 A3005 RMK AO2 SLP167 T02220039
19:53
V
23 °C 10 mi - 150° 150° 4 kt METAR KAFW 020053Z 15004KT 10SM CLR 23/04 A3003 RMK AO2 SLP163 T02280044
18:53
V
25 °C 10 mi - 110° 110° 5 kt METAR KAFW 012353Z 11005KT 10SM CLR 25/04 A3003 RMK AO2 SLP161 T02500044 10272 20250 53001
17:53
V
27 °C 10 mi - 100° 100° 8 kt METAR KAFW 012253Z 10008KT 10SM CLR 27/04 A3001 RMK AO2 SLP155 T02670044
16:53
V
27 °C 10 mi - 090° 090° 8 - 15 kt METAR KAFW 012153Z 09008G15KT 10SM CLR 27/03 A3001 RMK AO2 SLP154 T02720033
15:53
V
27 °C 10 mi - 110° 110° 8 kt METAR KAFW 012053Z 11008KT 10SM CLR 27/02 A3002 RMK AO2 SLP157 T02720022 56024
14:53
V
27 °C 10 mi - 080° 080° 7 - 16 kt METAR KAFW 011953Z 08007G16KT 10SM CLR 27/04 A3004 RMK AO2 SLP162 T02720039
13:53
V
26 °C 10 mi - Var Var 3 kt METAR KAFW 011853Z VRB03KT 10SM CLR 26/04 A3006 RMK AO2 SLP170 T02560039
12:53
V
25 °C 10 mi - 160° 160° 5 - 14 kt METAR KAFW 011753Z 16005G14KT 10SM CLR 25/04 A3009 RMK AO2 SLP181 T02500044 10256 20111 58003
11:53
V
24 °C 10 mi - 150° 150° 9 kt METAR KAFW 011653Z 15009KT 10SM CLR 24/06 A3010 RMK AO2 SLP185 T02390061
10:53
V
23 °C 10 mi - 140° 140° 7 kt METAR KAFW 011553Z 14007KT 10SM CLR 23/08 A3011 RMK AO2 SLP187 T02280078
09:53
V
19 °C 10 mi - Var Var 4 kt METAR KAFW 011453Z VRB04KT 10SM CLR 19/08 A3010 RMK AO2 SLP185 T01940083 53015
08:53
V
15 °C 10 mi - Var 000° 0 kt METAR KAFW 011353Z 00000KT 10SM CLR 15/08 A3009 RMK AO2 SLP182 T01500083
07:53
V
12 °C 10 mi - Var 000° 0 kt METAR KAFW 011253Z 00000KT 10SM CLR 12/06 A3007 RMK AO2 SLP177 T01170061
06:53
V
12 °C 10 mi - Var 000° 0 kt METAR KAFW 011153Z 00000KT 10SM CLR 12/06 A3006 RMK AO2 SLP172 T01170061 10189 20106 53017
05:53
V
13 °C 10 mi - Var 000° 0 kt METAR KAFW 011053Z 00000KT 10SM CLR 13/06 A3004 RMK AO2 SLP165 T01280061
04:53
V
13 °C 10 mi - Var 000° 0 kt METAR KAFW 010953Z 00000KT 10SM CLR 13/06 A3002 RMK AO2 SLP158 T01280061
03:53
V
15 °C 10 mi - Var 000° 0 kt METAR KAFW 010853Z 00000KT 10SM CLR 15/06 A3000 RMK AO2 SLP151 T01500056 53002
02:53
V
18 °C 10 mi - 100° 100° 3 kt METAR KAFW 010753Z 10003KT 10SM CLR 18/06 A3000 RMK AO2 SLP149 T01780056
Older data

We and third parties follow your internet behavior on our website with cookies. If you continue, we assume you agree with our cookie policy. Learn more